Pagina principale
METAR-TAF:

METAR-TAF

Aeroporti :

Sussex Airport

Sussex, New Jersey, Stati Uniti

latitudine: 41-12-01N, longitudine: 074-37-23W, altezza: 128 m

Osservazione

Il bollettino è stato emesso 46 minuti fa, alle 09:53 UTC
Vento 5 kt da nord
Temperature 12°C
Umidità 94%
Pressione 1024 hPa
Visibilità: 16.1 km
Cielo sereno

METAR: KFWN 230953Z AUTO 36005KT 10SM CLR 12/11 A3024 RMK AO2 SLP238 T01170106

Ora: 06:39 (10:39 UTC)


TAF: mancante

Osservazioni e previsioni meteorologiche di più di 4000 aeroporti (messaggi METAR e TAF).

Le stazioni disponibili sono rappresentate dai dischi gialli e rossi sulla carta.

Puntare il mouse per vedere il nome della stazione.

Clicca sopra per visualizzare le osservazioni e previsioni meteorologiche.

Per cambiare la mappa : fare clic sui pulsanti verdi con una croce nera per ingrandire, il pulsante verde con un trattino per diminuire, o sulla freccia verde per le mappe adiacenti.


METAR-TAF: